sensor_id;sensor_type;location;lat;lon;timestamp;P1;durP1;ratioP1;P2;durP2;ratioP2
65936;SDS011;52707;52.086;5.418;2022-12-10T00:01:17;65.80;;;31.30;;
65936;SDS011;52707;52.086;5.418;2022-12-10T00:03:44;66.28;;;30.80;;
65936;SDS011;52707;52.086;5.418;2022-12-10T00:06:15;67.40;;;30.83;;
65936;SDS011;52707;52.086;5.418;2022-12-10T00:08:42;66.43;;;32.22;;
65936;SDS011;52707;52.086;5.418;2022-12-10T00:11:09;71.20;;;32.67;;
65936;SDS011;52707;52.086;5.418;2022-12-10T00:13:36;70.05;;;31.05;;
65936;SDS011;52707;52.086;5.418;2022-12-10T00:16:03;64.78;;;28.55;;
65936;SDS011;52707;52.086;5.418;2022-12-10T00:18:30;71.30;;;30.25;;
65936;SDS011;52707;52.086;5.418;2022-12-10T00:20:56;62.40;;;31.25;;
65936;SDS011;52707;52.086;5.418;2022-12-10T00:23:23;63.83;;;30.25;;
65936;SDS011;52707;52.086;5.418;2022-12-10T00:25:49;73.55;;;30.42;;
65936;SDS011;52707;52.086;5.418;2022-12-10T00:28:15;67.80;;;29.77;;
65936;SDS011;52707;52.086;5.418;2022-12-10T00:30:42;66.78;;;31.90;;
65936;SDS011;52707;52.086;5.418;2022-12-10T00:33:08;69.30;;;31.85;;
65936;SDS011;52707;52.086;5.418;2022-12-10T00:35:35;64.40;;;31.58;;
65936;SDS011;52707;52.086;5.418;2022-12-10T00:38:01;76.97;;;32.95;;
65936;SDS011;52707;52.086;5.418;2022-12-10T00:40:27;72.63;;;32.03;;
65936;SDS011;52707;52.086;5.418;2022-12-10T00:42:54;72.53;;;35.10;;
65936;SDS011;52707;52.086;5.418;2022-12-10T00:45:20;71.38;;;33.67;;
65936;SDS011;52707;52.086;5.418;2022-12-10T00:47:47;77.70;;;34.10;;
65936;SDS011;52707;52.086;5.418;2022-12-10T00:50:13;74.82;;;33.13;;
65936;SDS011;52707;52.086;5.418;2022-12-10T00:52:39;75.43;;;34.55;;
65936;SDS011;52707;52.086;5.418;2022-12-10T00:55:06;82.13;;;35.83;;
65936;SDS011;52707;52.086;5.418;2022-12-10T00:57:32;80.75;;;33.88;;
65936;SDS011;52707;52.086;5.418;2022-12-10T00:59:58;74.35;;;32.75;;
65936;SDS011;52707;52.086;5.418;2022-12-10T01:02:25;69.57;;;32.90;;
65936;SDS011;52707;52.086;5.418;2022-12-10T01:04:52;73.07;;;33.60;;
65936;SDS011;52707;52.086;5.418;2022-12-10T01:07:18;78.75;;;35.60;;
65936;SDS011;52707;52.086;5.418;2022-12-10T01:09:44;76.65;;;34.78;;
65936;SDS011;52707;52.086;5.418;2022-12-10T01:12:10;79.72;;;34.35;;
65936;SDS011;52707;52.086;5.418;2022-12-10T01:14:37;85.15;;;36.28;;
65936;SDS011;52707;52.086;5.418;2022-12-10T01:17:04;80.40;;;36.95;;
65936;SDS011;52707;52.086;5.418;2022-12-10T01:19:32;84.00;;;35.58;;
65936;SDS011;52707;52.086;5.418;2022-12-10T01:21:58;74.18;;;34.47;;
65936;SDS011;52707;52.086;5.418;2022-12-10T01:24:25;83.85;;;35.17;;
65936;SDS011;52707;52.086;5.418;2022-12-10T01:26:52;78.75;;;36.28;;
65936;SDS011;52707;52.086;5.418;2022-12-10T01:29:18;87.88;;;39.35;;
65936;SDS011;52707;52.086;5.418;2022-12-10T01:31:44;84.35;;;36.42;;
65936;SDS011;52707;52.086;5.418;2022-12-10T01:34:13;86.85;;;37.08;;
65936;SDS011;52707;52.086;5.418;2022-12-10T01:36:41;74.68;;;34.78;;
65936;SDS011;52707;52.086;5.418;2022-12-10T01:39:09;81.78;;;36.45;;
65936;SDS011;52707;52.086;5.418;2022-12-10T01:41:37;74.97;;;35.13;;
65936;SDS011;52707;52.086;5.418;2022-12-10T01:46:37;76.47;;;34.30;;
65936;SDS011;52707;52.086;5.418;2022-12-10T01:49:04;72.55;;;33.80;;
65936;SDS011;52707;52.086;5.418;2022-12-10T01:51:32;80.05;;;34.72;;
65936;SDS011;52707;52.086;5.418;2022-12-10T01:53:59;81.50;;;34.67;;
65936;SDS011;52707;52.086;5.418;2022-12-10T01:56:25;81.03;;;36.42;;
65936;SDS011;52707;52.086;5.418;2022-12-10T01:58:53;89.20;;;35.50;;
65936;SDS011;52707;52.086;5.418;2022-12-10T02:03:51;89.40;;;35.95;;
65936;SDS011;52707;52.086;5.418;2022-12-10T02:06:27;87.03;;;35.28;;
65936;SDS011;52707;52.086;5.418;2022-12-10T02:08:59;83.53;;;36.08;;
65936;SDS011;52707;52.086;5.418;2022-12-10T02:11:29;92.82;;;37.17;;
65936;SDS011;52707;52.086;5.418;2022-12-10T02:14:00;80.47;;;35.97;;
65936;SDS011;52707;52.086;5.418;2022-12-10T02:16:36;89.78;;;36.72;;
65936;SDS011;52707;52.086;5.418;2022-12-10T02:19:06;90.65;;;37.00;;
65936;SDS011;52707;52.086;5.418;2022-12-10T02:21:36;88.40;;;36.13;;
65936;SDS011;52707;52.086;5.418;2022-12-10T02:24:04;87.05;;;36.45;;
65936;SDS011;52707;52.086;5.418;2022-12-10T02:26:35;93.75;;;36.35;;
65936;SDS011;52707;52.086;5.418;2022-12-10T02:29:06;89.20;;;37.20;;
65936;SDS011;52707;52.086;5.418;2022-12-10T02:31:32;98.25;;;37.00;;
65936;SDS011;52707;52.086;5.418;2022-12-10T02:34:00;90.35;;;36.50;;
65936;SDS011;52707;52.086;5.418;2022-12-10T02:36:28;82.25;;;35.08;;
65936;SDS011;52707;52.086;5.418;2022-12-10T02:38:55;124.25;;;37.10;;
65936;SDS011;52707;52.086;5.418;2022-12-10T02:41:23;95.07;;;38.20;;
65936;SDS011;52707;52.086;5.418;2022-12-10T02:43:51;92.38;;;34.28;;
65936;SDS011;52707;52.086;5.418;2022-12-10T02:46:18;101.72;;;36.78;;
65936;SDS011;52707;52.086;5.418;2022-12-10T02:48:45;110.82;;;36.83;;
65936;SDS011;52707;52.086;5.418;2022-12-10T02:51:12;86.68;;;36.47;;
65936;SDS011;52707;52.086;5.418;2022-12-10T02:53:42;93.93;;;37.38;;
65936;SDS011;52707;52.086;5.418;2022-12-10T02:56:30;97.97;;;37.60;;
65936;SDS011;52707;52.086;5.418;2022-12-10T02:59:03;103.38;;;36.92;;
65936;SDS011;52707;52.086;5.418;2022-12-10T03:04:15;98.30;;;36.60;;
65936;SDS011;52707;52.086;5.418;2022-12-10T03:06:46;95.18;;;38.08;;
65936;SDS011;52707;52.086;5.418;2022-12-10T03:09:34;101.65;;;37.50;;
65936;SDS011;52707;52.086;5.418;2022-12-10T03:12:06;134.60;;;38.58;;
65936;SDS011;52707;52.086;5.418;2022-12-10T03:14:33;94.20;;;37.45;;
65936;SDS011;52707;52.086;5.418;2022-12-10T03:17:00;99.63;;;39.60;;
65936;SDS011;52707;52.086;5.418;2022-12-10T03:19:37;138.25;;;40.28;;
65936;SDS011;52707;52.086;5.418;2022-12-10T03:22:06;102.32;;;39.50;;
65936;SDS011;52707;52.086;5.418;2022-12-10T03:24:33;144.43;;;38.97;;
65936;SDS011;52707;52.086;5.418;2022-12-10T03:27:00;148.75;;;40.05;;
65936;SDS011;52707;52.086;5.418;2022-12-10T03:29:29;190.77;;;38.90;;
65936;SDS011;52707;52.086;5.418;2022-12-10T03:31:56;98.65;;;37.08;;
65936;SDS011;52707;52.086;5.418;2022-12-10T03:34:24;189.38;;;37.67;;
65936;SDS011;52707;52.086;5.418;2022-12-10T03:36:51;114.45;;;35.67;;
65936;SDS011;52707;52.086;5.418;2022-12-10T03:39:17;97.82;;;35.95;;
65936;SDS011;52707;52.086;5.418;2022-12-10T03:41:44;90.28;;;35.63;;
65936;SDS011;52707;52.086;5.418;2022-12-10T03:44:10;108.63;;;35.78;;
65936;SDS011;52707;52.086;5.418;2022-12-10T03:46:36;104.57;;;36.70;;
65936;SDS011;52707;52.086;5.418;2022-12-10T03:49:03;97.22;;;35.45;;
65936;SDS011;52707;52.086;5.418;2022-12-10T03:51:30;101.13;;;32.83;;
65936;SDS011;52707;52.086;5.418;2022-12-10T03:53:56;100.82;;;35.78;;
65936;SDS011;52707;52.086;5.418;2022-12-10T03:56:22;85.93;;;31.83;;
65936;SDS011;52707;52.086;5.418;2022-12-10T03:58:49;125.72;;;31.85;;
65936;SDS011;52707;52.086;5.418;2022-12-10T04:01:15;112.90;;;30.38;;
65936;SDS011;52707;52.086;5.418;2022-12-10T04:03:42;91.47;;;32.05;;
65936;SDS011;52707;52.086;5.418;2022-12-10T04:06:11;120.82;;;32.72;;
65936;SDS011;52707;52.086;5.418;2022-12-10T04:08:37;104.07;;;32.00;;
65936;SDS011;52707;52.086;5.418;2022-12-10T04:11:04;118.68;;;34.50;;
65936;SDS011;52707;52.086;5.418;2022-12-10T04:13:32;96.05;;;35.30;;
65936;SDS011;52707;52.086;5.418;2022-12-10T04:16:17;121.82;;;36.20;;
65936;SDS011;52707;52.086;5.418;2022-12-10T04:18:57;229.68;;;34.88;;
65936;SDS011;52707;52.086;5.418;2022-12-10T04:21:26;115.47;;;35.10;;
65936;SDS011;52707;52.086;5.418;2022-12-10T04:24:12;131.05;;;33.05;;
65936;SDS011;52707;52.086;5.418;2022-12-10T04:26:57;148.95;;;33.55;;
65936;SDS011;52707;52.086;5.418;2022-12-10T04:29:27;90.78;;;30.23;;
65936;SDS011;52707;52.086;5.418;2022-12-10T04:31:54;83.60;;;29.98;;
65936;SDS011;52707;52.086;5.418;2022-12-10T04:34:21;132.20;;;33.05;;
65936;SDS011;52707;52.086;5.418;2022-12-10T04:36:48;154.02;;;32.22;;
65936;SDS011;52707;52.086;5.418;2022-12-10T04:39:14;135.95;;;34.83;;
65936;SDS011;52707;52.086;5.418;2022-12-10T04:41:41;130.45;;;33.60;;
65936;SDS011;52707;52.086;5.418;2022-12-10T04:44:08;87.68;;;32.13;;
65936;SDS011;52707;52.086;5.418;2022-12-10T04:46:34;105.72;;;35.72;;
65936;SDS011;52707;52.086;5.418;2022-12-10T04:49:02;127.07;;;36.78;;
65936;SDS011;52707;52.086;5.418;2022-12-10T04:51:28;216.55;;;35.95;;
65936;SDS011;52707;52.086;5.418;2022-12-10T04:53:54;136.75;;;32.28;;
65936;SDS011;52707;52.086;5.418;2022-12-10T04:56:21;99.93;;;34.38;;
65936;SDS011;52707;52.086;5.418;2022-12-10T04:58:47;205.55;;;39.05;;
65936;SDS011;52707;52.086;5.418;2022-12-10T05:01:13;130.63;;;35.60;;
65936;SDS011;52707;52.086;5.418;2022-12-10T05:03:40;133.45;;;35.15;;
65936;SDS011;52707;52.086;5.418;2022-12-10T05:06:07;130.75;;;36.15;;
65936;SDS011;52707;52.086;5.418;2022-12-10T05:08:34;104.07;;;36.05;;
65936;SDS011;52707;52.086;5.418;2022-12-10T05:11:01;159.43;;;34.80;;
65936;SDS011;52707;52.086;5.418;2022-12-10T05:13:28;118.93;;;33.97;;
65936;SDS011;52707;52.086;5.418;2022-12-10T05:15:54;123.57;;;34.03;;
65936;SDS011;52707;52.086;5.418;2022-12-10T05:18:21;118.40;;;37.97;;
65936;SDS011;52707;52.086;5.418;2022-12-10T05:20:47;125.53;;;36.70;;
65936;SDS011;52707;52.086;5.418;2022-12-10T05:23:14;106.53;;;36.97;;
65936;SDS011;52707;52.086;5.418;2022-12-10T05:28:24;152.65;;;38.28;;
65936;SDS011;52707;52.086;5.418;2022-12-10T05:30:51;147.25;;;35.42;;
65936;SDS011;52707;52.086;5.418;2022-12-10T05:33:17;144.63;;;36.15;;
65936;SDS011;52707;52.086;5.418;2022-12-10T05:35:43;172.57;;;35.80;;
65936;SDS011;52707;52.086;5.418;2022-12-10T05:38:13;118.68;;;37.20;;
65936;SDS011;52707;52.086;5.418;2022-12-10T05:40:39;97.38;;;34.33;;
65936;SDS011;52707;52.086;5.418;2022-12-10T05:43:05;117.45;;;34.58;;
65936;SDS011;52707;52.086;5.418;2022-12-10T05:45:32;108.32;;;35.10;;
65936;SDS011;52707;52.086;5.418;2022-12-10T05:47:58;122.72;;;36.50;;
65936;SDS011;52707;52.086;5.418;2022-12-10T05:50:25;165.57;;;33.50;;
65936;SDS011;52707;52.086;5.418;2022-12-10T05:52:51;150.38;;;33.28;;
65936;SDS011;52707;52.086;5.418;2022-12-10T05:55:17;122.32;;;31.38;;
65936;SDS011;52707;52.086;5.418;2022-12-10T05:57:43;131.02;;;32.60;;
65936;SDS011;52707;52.086;5.418;2022-12-10T06:00:10;114.47;;;32.92;;
65936;SDS011;52707;52.086;5.418;2022-12-10T06:02:36;193.43;;;32.25;;
65936;SDS011;52707;52.086;5.418;2022-12-10T06:05:03;122.75;;;32.38;;
65936;SDS011;52707;52.086;5.418;2022-12-10T06:07:29;100.13;;;31.90;;
65936;SDS011;52707;52.086;5.418;2022-12-10T06:09:56;122.88;;;33.17;;
65936;SDS011;52707;52.086;5.418;2022-12-10T06:12:22;138.00;;;37.00;;
65936;SDS011;52707;52.086;5.418;2022-12-10T06:14:48;100.97;;;36.03;;
65936;SDS011;52707;52.086;5.418;2022-12-10T06:17:15;133.80;;;32.50;;
65936;SDS011;52707;52.086;5.418;2022-12-10T06:19:41;150.20;;;32.10;;
65936;SDS011;52707;52.086;5.418;2022-12-10T06:22:07;144.98;;;32.78;;
65936;SDS011;52707;52.086;5.418;2022-12-10T06:24:34;108.13;;;31.27;;
65936;SDS011;52707;52.086;5.418;2022-12-10T06:27:00;105.28;;;32.08;;
65936;SDS011;52707;52.086;5.418;2022-12-10T06:29:26;96.53;;;33.00;;
65936;SDS011;52707;52.086;5.418;2022-12-10T06:31:52;116.13;;;34.17;;
65936;SDS011;52707;52.086;5.418;2022-12-10T06:34:19;123.10;;;31.95;;
65936;SDS011;52707;52.086;5.418;2022-12-10T06:36:45;101.07;;;30.92;;
65936;SDS011;52707;52.086;5.418;2022-12-10T06:39:11;117.90;;;32.80;;
65936;SDS011;52707;52.086;5.418;2022-12-10T06:41:38;96.07;;;34.35;;
65936;SDS011;52707;52.086;5.418;2022-12-10T06:44:07;94.40;;;32.15;;
65936;SDS011;52707;52.086;5.418;2022-12-10T06:46:33;113.35;;;32.53;;
65936;SDS011;52707;52.086;5.418;2022-12-10T06:49:00;149.32;;;33.40;;
65936;SDS011;52707;52.086;5.418;2022-12-10T06:51:26;132.48;;;33.95;;
65936;SDS011;52707;52.086;5.418;2022-12-10T06:53:53;159.63;;;33.47;;
65936;SDS011;52707;52.086;5.418;2022-12-10T06:56:19;103.70;;;33.00;;
65936;SDS011;52707;52.086;5.418;2022-12-10T06:58:46;93.53;;;31.35;;
65936;SDS011;52707;52.086;5.418;2022-12-10T07:01:16;116.35;;;33.50;;
65936;SDS011;52707;52.086;5.418;2022-12-10T07:03:43;91.25;;;32.95;;
65936;SDS011;52707;52.086;5.418;2022-12-10T07:06:10;94.18;;;31.88;;
65936;SDS011;52707;52.086;5.418;2022-12-10T07:08:37;93.65;;;33.03;;
65936;SDS011;52707;52.086;5.418;2022-12-10T07:11:04;134.45;;;34.05;;
65936;SDS011;52707;52.086;5.418;2022-12-10T07:13:31;109.45;;;34.70;;
65936;SDS011;52707;52.086;5.418;2022-12-10T07:15:57;133.23;;;33.00;;
65936;SDS011;52707;52.086;5.418;2022-12-10T07:18:24;93.30;;;32.42;;
65936;SDS011;52707;52.086;5.418;2022-12-10T07:20:50;125.68;;;32.90;;
65936;SDS011;52707;52.086;5.418;2022-12-10T07:23:16;97.88;;;33.25;;
65936;SDS011;52707;52.086;5.418;2022-12-10T07:25:43;114.07;;;31.30;;
65936;SDS011;52707;52.086;5.418;2022-12-10T07:28:09;99.47;;;30.45;;
65936;SDS011;52707;52.086;5.418;2022-12-10T07:30:35;82.93;;;29.65;;
65936;SDS011;52707;52.086;5.418;2022-12-10T07:33:02;83.03;;;29.08;;
65936;SDS011;52707;52.086;5.418;2022-12-10T07:35:28;76.07;;;28.20;;
65936;SDS011;52707;52.086;5.418;2022-12-10T07:37:54;77.20;;;28.77;;
65936;SDS011;52707;52.086;5.418;2022-12-10T07:40:21;78.57;;;28.35;;
65936;SDS011;52707;52.086;5.418;2022-12-10T07:42:47;89.45;;;29.63;;
65936;SDS011;52707;52.086;5.418;2022-12-10T07:45:13;103.85;;;30.80;;
65936;SDS011;52707;52.086;5.418;2022-12-10T07:47:39;81.78;;;30.25;;
65936;SDS011;52707;52.086;5.418;2022-12-10T07:50:06;87.55;;;31.52;;
65936;SDS011;52707;52.086;5.418;2022-12-10T07:52:33;92.38;;;30.08;;
65936;SDS011;52707;52.086;5.418;2022-12-10T07:54:59;90.43;;;31.00;;
65936;SDS011;52707;52.086;5.418;2022-12-10T07:57:25;90.55;;;30.38;;
65936;SDS011;52707;52.086;5.418;2022-12-10T07:59:52;100.38;;;29.77;;
65936;SDS011;52707;52.086;5.418;2022-12-10T08:02:18;103.35;;;30.40;;
65936;SDS011;52707;52.086;5.418;2022-12-10T08:04:44;91.65;;;30.38;;
65936;SDS011;52707;52.086;5.418;2022-12-10T08:07:10;105.70;;;31.42;;
65936;SDS011;52707;52.086;5.418;2022-12-10T08:09:37;98.57;;;32.00;;
65936;SDS011;52707;52.086;5.418;2022-12-10T08:12:03;100.93;;;28.65;;
65936;SDS011;52707;52.086;5.418;2022-12-10T08:14:30;86.20;;;28.08;;
65936;SDS011;52707;52.086;5.418;2022-12-10T08:16:56;85.35;;;28.70;;
65936;SDS011;52707;52.086;5.418;2022-12-10T08:19:22;90.13;;;31.13;;
65936;SDS011;52707;52.086;5.418;2022-12-10T08:21:55;80.70;;;30.15;;
65936;SDS011;52707;52.086;5.418;2022-12-10T08:24:21;98.55;;;29.80;;
65936;SDS011;52707;52.086;5.418;2022-12-10T08:26:47;102.68;;;30.55;;
65936;SDS011;52707;52.086;5.418;2022-12-10T08:29:13;86.50;;;29.40;;
65936;SDS011;52707;52.086;5.418;2022-12-10T08:31:40;85.85;;;31.02;;
65936;SDS011;52707;52.086;5.418;2022-12-10T08:34:13;111.32;;;31.33;;
65936;SDS011;52707;52.086;5.418;2022-12-10T08:36:40;90.22;;;27.08;;
65936;SDS011;52707;52.086;5.418;2022-12-10T08:39:06;90.63;;;29.33;;
65936;SDS011;52707;52.086;5.418;2022-12-10T08:41:33;100.32;;;27.77;;
65936;SDS011;52707;52.086;5.418;2022-12-10T08:43:59;80.43;;;28.02;;
65936;SDS011;52707;52.086;5.418;2022-12-10T08:46:25;123.07;;;28.02;;
65936;SDS011;52707;52.086;5.418;2022-12-10T08:48:52;84.22;;;26.63;;
65936;SDS011;52707;52.086;5.418;2022-12-10T08:51:19;79.97;;;28.15;;
65936;SDS011;52707;52.086;5.418;2022-12-10T08:53:45;75.72;;;28.02;;
65936;SDS011;52707;52.086;5.418;2022-12-10T08:56:12;91.30;;;29.50;;
65936;SDS011;52707;52.086;5.418;2022-12-10T08:58:39;92.78;;;30.48;;
65936;SDS011;52707;52.086;5.418;2022-12-10T09:01:06;76.32;;;27.65;;
65936;SDS011;52707;52.086;5.418;2022-12-10T09:03:33;69.38;;;26.27;;
65936;SDS011;52707;52.086;5.418;2022-12-10T09:06:03;80.40;;;28.00;;
65936;SDS011;52707;52.086;5.418;2022-12-10T09:10:56;75.43;;;26.88;;
65936;SDS011;52707;52.086;5.418;2022-12-10T09:13:22;73.00;;;25.75;;
65936;SDS011;52707;52.086;5.418;2022-12-10T09:15:52;86.80;;;30.63;;
65936;SDS011;52707;52.086;5.418;2022-12-10T09:18:18;75.20;;;28.47;;
65936;SDS011;52707;52.086;5.418;2022-12-10T09:20:45;81.20;;;27.67;;
65936;SDS011;52707;52.086;5.418;2022-12-10T09:23:11;141.35;;;30.27;;
65936;SDS011;52707;52.086;5.418;2022-12-10T09:25:37;80.20;;;28.88;;
65936;SDS011;52707;52.086;5.418;2022-12-10T09:28:04;87.93;;;28.33;;
65936;SDS011;52707;52.086;5.418;2022-12-10T09:30:30;116.35;;;30.27;;
65936;SDS011;52707;52.086;5.418;2022-12-10T09:32:57;130.65;;;29.25;;
65936;SDS011;52707;52.086;5.418;2022-12-10T09:35:23;95.95;;;29.20;;
65936;SDS011;52707;52.086;5.418;2022-12-10T09:37:49;98.53;;;31.00;;
65936;SDS011;52707;52.086;5.418;2022-12-10T09:40:16;132.27;;;31.70;;
65936;SDS011;52707;52.086;5.418;2022-12-10T09:45:20;101.07;;;31.55;;
65936;SDS011;52707;52.086;5.418;2022-12-10T09:52:52;97.95;;;29.13;;
65936;SDS011;52707;52.086;5.418;2022-12-10T09:55:32;83.82;;;26.45;;
65936;SDS011;52707;52.086;5.418;2022-12-10T09:57:59;120.30;;;28.70;;
65936;SDS011;52707;52.086;5.418;2022-12-10T10:02:55;79.00;;;24.63;;
65936;SDS011;52707;52.086;5.418;2022-12-10T10:05:24;70.55;;;26.80;;
65936;SDS011;52707;52.086;5.418;2022-12-10T10:07:52;79.38;;;26.98;;
65936;SDS011;52707;52.086;5.418;2022-12-10T10:12:45;82.47;;;29.42;;
65936;SDS011;52707;52.086;5.418;2022-12-10T10:15:13;83.32;;;27.80;;
65936;SDS011;52707;52.086;5.418;2022-12-10T10:17:39;82.68;;;28.38;;
65936;SDS011;52707;52.086;5.418;2022-12-10T10:20:11;86.00;;;28.83;;
65936;SDS011;52707;52.086;5.418;2022-12-10T10:22:39;95.80;;;29.35;;
65936;SDS011;52707;52.086;5.418;2022-12-10T10:25:07;83.70;;;28.88;;
65936;SDS011;52707;52.086;5.418;2022-12-10T10:27:38;80.63;;;26.50;;
65936;SDS011;52707;52.086;5.418;2022-12-10T10:30:06;82.68;;;25.35;;
65936;SDS011;52707;52.086;5.418;2022-12-10T10:35:02;92.95;;;28.73;;
65936;SDS011;52707;52.086;5.418;2022-12-10T10:37:29;93.57;;;27.83;;
65936;SDS011;52707;52.086;5.418;2022-12-10T10:39:57;100.50;;;26.58;;
65936;SDS011;52707;52.086;5.418;2022-12-10T10:42:42;100.78;;;25.60;;
65936;SDS011;52707;52.086;5.418;2022-12-10T10:48:14;70.05;;;25.27;;
65936;SDS011;52707;52.086;5.418;2022-12-10T10:50:45;71.45;;;24.80;;
65936;SDS011;52707;52.086;5.418;2022-12-10T10:53:20;84.72;;;26.48;;
65936;SDS011;52707;52.086;5.418;2022-12-10T10:55:46;86.32;;;26.20;;
65936;SDS011;52707;52.086;5.418;2022-12-10T10:58:16;77.53;;;26.65;;
65936;SDS011;52707;52.086;5.418;2022-12-10T11:00:46;64.22;;;24.92;;
65936;SDS011;52707;52.086;5.418;2022-12-10T11:03:18;70.68;;;25.50;;
65936;SDS011;52707;52.086;5.418;2022-12-10T11:05:46;86.38;;;25.48;;
65936;SDS011;52707;52.086;5.418;2022-12-10T11:08:14;98.50;;;27.42;;
65936;SDS011;52707;52.086;5.418;2022-12-10T11:10:48;77.00;;;25.50;;
65936;SDS011;52707;52.086;5.418;2022-12-10T11:13:19;66.28;;;24.40;;
65936;SDS011;52707;52.086;5.418;2022-12-10T11:15:53;71.18;;;25.00;;
65936;SDS011;52707;52.086;5.418;2022-12-10T11:18:29;79.43;;;26.15;;
65936;SDS011;52707;52.086;5.418;2022-12-10T11:23:38;79.88;;;28.33;;
65936;SDS011;52707;52.086;5.418;2022-12-10T11:26:09;102.25;;;27.48;;
65936;SDS011;52707;52.086;5.418;2022-12-10T11:28:47;99.15;;;26.67;;
65936;SDS011;52707;52.086;5.418;2022-12-10T11:31:29;88.95;;;29.75;;
65936;SDS011;52707;52.086;5.418;2022-12-10T11:34:17;85.60;;;27.50;;
65936;SDS011;52707;52.086;5.418;2022-12-10T11:41:58;103.55;;;28.20;;
65936;SDS011;52707;52.086;5.418;2022-12-10T11:44:33;87.63;;;27.30;;
65936;SDS011;52707;52.086;5.418;2022-12-10T11:49:46;69.88;;;24.42;;
65936;SDS011;52707;52.086;5.418;2022-12-10T11:54:47;73.25;;;25.63;;
65936;SDS011;52707;52.086;5.418;2022-12-10T11:57:17;67.90;;;25.33;;
65936;SDS011;52707;52.086;5.418;2022-12-10T11:59:59;75.57;;;26.60;;
65936;SDS011;52707;52.086;5.418;2022-12-10T12:05:09;74.88;;;26.67;;
65936;SDS011;52707;52.086;5.418;2022-12-10T12:07:41;76.55;;;26.33;;
65936;SDS011;52707;52.086;5.418;2022-12-10T12:12:46;70.40;;;25.20;;
65936;SDS011;52707;52.086;5.418;2022-12-10T12:17:58;83.85;;;26.60;;
65936;SDS011;52707;52.086;5.418;2022-12-10T12:20:28;71.93;;;25.65;;
65936;SDS011;52707;52.086;5.418;2022-12-10T12:22:57;78.07;;;27.97;;
65936;SDS011;52707;52.086;5.418;2022-12-10T12:25:44;76.05;;;25.60;;
65936;SDS011;52707;52.086;5.418;2022-12-10T12:28:14;106.63;;;26.73;;
65936;SDS011;52707;52.086;5.418;2022-12-10T12:30:44;82.20;;;26.23;;
65936;SDS011;52707;52.086;5.418;2022-12-10T12:33:28;80.03;;;30.85;;
65936;SDS011;52707;52.086;5.418;2022-12-10T12:35:57;78.60;;;29.65;;
65936;SDS011;52707;52.086;5.418;2022-12-10T12:38:28;78.10;;;28.58;;
65936;SDS011;52707;52.086;5.418;2022-12-10T12:41:02;73.82;;;28.02;;
65936;SDS011;52707;52.086;5.418;2022-12-10T12:46:01;63.25;;;26.05;;
65936;SDS011;52707;52.086;5.418;2022-12-10T12:48:32;76.05;;;26.55;;
65936;SDS011;52707;52.086;5.418;2022-12-10T12:51:01;70.10;;;26.95;;
65936;SDS011;52707;52.086;5.418;2022-12-10T12:53:29;70.10;;;24.33;;
65936;SDS011;52707;52.086;5.418;2022-12-10T12:58:40;67.10;;;25.13;;
65936;SDS011;52707;52.086;5.418;2022-12-10T13:03:44;94.63;;;24.88;;
65936;SDS011;52707;52.086;5.418;2022-12-10T13:06:27;73.15;;;24.92;;
65936;SDS011;52707;52.086;5.418;2022-12-10T13:11:35;81.82;;;26.67;;
65936;SDS011;52707;52.086;5.418;2022-12-10T13:22:00;69.65;;;25.95;;
65936;SDS011;52707;52.086;5.418;2022-12-10T13:32:21;72.57;;;26.20;;
65936;SDS011;52707;52.086;5.418;2022-12-10T13:35:32;79.57;;;26.58;;
65936;SDS011;52707;52.086;5.418;2022-12-10T13:42:44;76.22;;;26.15;;
65936;SDS011;52707;52.086;5.418;2022-12-10T13:45:31;73.57;;;26.05;;
65936;SDS011;52707;52.086;5.418;2022-12-10T13:50:38;75.22;;;24.95;;
65936;SDS011;52707;52.086;5.418;2022-12-10T14:04:01;84.78;;;24.65;;
65936;SDS011;52707;52.086;5.418;2022-12-10T14:08:37;73.57;;;25.90;;
65936;SDS011;52707;52.086;5.418;2022-12-10T14:11:06;89.82;;;25.98;;
65936;SDS011;52707;52.086;5.418;2022-12-10T14:13:39;69.45;;;25.27;;
65936;SDS011;52707;52.086;5.418;2022-12-10T14:16:09;81.10;;;27.35;;
65936;SDS011;52707;52.086;5.418;2022-12-10T14:18:36;105.90;;;26.47;;
65936;SDS011;52707;52.086;5.418;2022-12-10T14:21:05;75.15;;;26.25;;
65936;SDS011;52707;52.086;5.418;2022-12-10T14:23:32;94.28;;;31.58;;
65936;SDS011;52707;52.086;5.418;2022-12-10T14:28:31;73.93;;;27.85;;
65936;SDS011;52707;52.086;5.418;2022-12-10T14:31:00;83.65;;;33.55;;
65936;SDS011;52707;52.086;5.418;2022-12-10T14:33:28;99.07;;;30.65;;
65936;SDS011;52707;52.086;5.418;2022-12-10T14:35:54;100.05;;;30.10;;
65936;SDS011;52707;52.086;5.418;2022-12-10T14:38:30;85.50;;;28.25;;
65936;SDS011;52707;52.086;5.418;2022-12-10T14:40:58;82.50;;;30.55;;
65936;SDS011;52707;52.086;5.418;2022-12-10T14:43:26;85.28;;;28.70;;
65936;SDS011;52707;52.086;5.418;2022-12-10T14:45:57;83.75;;;29.38;;
65936;SDS011;52707;52.086;5.418;2022-12-10T14:48:24;78.63;;;27.05;;
65936;SDS011;52707;52.086;5.418;2022-12-10T14:50:51;87.30;;;27.33;;
65936;SDS011;52707;52.086;5.418;2022-12-10T14:53:18;86.57;;;28.52;;
65936;SDS011;52707;52.086;5.418;2022-12-10T14:55:53;83.57;;;28.70;;
65936;SDS011;52707;52.086;5.418;2022-12-10T14:58:24;76.72;;;26.42;;
65936;SDS011;52707;52.086;5.418;2022-12-10T15:00:52;92.28;;;29.23;;
65936;SDS011;52707;52.086;5.418;2022-12-10T15:03:24;86.03;;;28.42;;
65936;SDS011;52707;52.086;5.418;2022-12-10T15:05:55;84.50;;;28.42;;
65936;SDS011;52707;52.086;5.418;2022-12-10T15:08:22;86.95;;;29.15;;
65936;SDS011;52707;52.086;5.418;2022-12-10T15:10:50;107.85;;;32.35;;
65936;SDS011;52707;52.086;5.418;2022-12-10T15:13:21;91.93;;;30.98;;
65936;SDS011;52707;52.086;5.418;2022-12-10T15:15:48;93.00;;;30.17;;
65936;SDS011;52707;52.086;5.418;2022-12-10T15:18:16;101.65;;;30.02;;
65936;SDS011;52707;52.086;5.418;2022-12-10T15:26:04;97.55;;;29.05;;
65936;SDS011;52707;52.086;5.418;2022-12-10T15:28:36;96.90;;;31.85;;
65936;SDS011;52707;52.086;5.418;2022-12-10T15:33:45;86.47;;;28.00;;
65936;SDS011;52707;52.086;5.418;2022-12-10T15:36:24;106.95;;;32.90;;
65936;SDS011;52707;52.086;5.418;2022-12-10T15:38:51;105.00;;;32.95;;
65936;SDS011;52707;52.086;5.418;2022-12-10T15:42:00;110.38;;;33.80;;
65936;SDS011;52707;52.086;5.418;2022-12-10T15:44:18;109.18;;;33.10;;
65936;SDS011;52707;52.086;5.418;2022-12-10T15:46:49;118.90;;;36.83;;
65936;SDS011;52707;52.086;5.418;2022-12-10T15:49:15;108.57;;;36.33;;
65936;SDS011;52707;52.086;5.418;2022-12-10T15:51:42;128.55;;;35.70;;
65936;SDS011;52707;52.086;5.418;2022-12-10T15:54:19;111.53;;;32.90;;
65936;SDS011;52707;52.086;5.418;2022-12-10T15:56:46;123.05;;;30.67;;
65936;SDS011;52707;52.086;5.418;2022-12-10T15:59:12;90.78;;;29.20;;
65936;SDS011;52707;52.086;5.418;2022-12-10T16:01:38;87.05;;;27.92;;
65936;SDS011;52707;52.086;5.418;2022-12-10T16:04:05;95.38;;;30.95;;
65936;SDS011;52707;52.086;5.418;2022-12-10T16:06:31;108.90;;;29.67;;
65936;SDS011;52707;52.086;5.418;2022-12-10T16:08:57;89.57;;;28.75;;
65936;SDS011;52707;52.086;5.418;2022-12-10T16:11:24;123.70;;;36.65;;
65936;SDS011;52707;52.086;5.418;2022-12-10T16:13:51;93.78;;;29.13;;